sensor_id;sensor_type;location;lat;lon;timestamp;temperature;humidity
32322;DHT22;61553;48.994;8.940;2022-09-13T00:01:14;12.00;99.90
32322;DHT22;61553;48.994;8.940;2022-09-13T00:03:40;11.90;99.90
32322;DHT22;61553;48.994;8.940;2022-09-13T00:06:17;11.80;99.90
32322;DHT22;61553;48.994;8.940;2022-09-13T00:08:44;11.70;99.90
32322;DHT22;61553;48.994;8.940;2022-09-13T00:11:21;11.60;99.90
32322;DHT22;61553;48.994;8.940;2022-09-13T00:13:48;11.60;99.90
32322;DHT22;61553;48.994;8.940;2022-09-13T00:16:17;11.60;99.90
32322;DHT22;61553;48.994;8.940;2022-09-13T00:18:43;11.60;99.90
32322;DHT22;61553;48.994;8.940;2022-09-13T00:21:17;11.50;99.90
32322;DHT22;61553;48.994;8.940;2022-09-13T00:23:44;11.50;99.90
32322;DHT22;61553;48.994;8.940;2022-09-13T00:26:13;11.40;99.90
32322;DHT22;61553;48.994;8.940;2022-09-13T00:28:39;11.40;99.90
32322;DHT22;61553;48.994;8.940;2022-09-13T00:31:07;11.30;99.90
32322;DHT22;61553;48.994;8.940;2022-09-13T00:33:34;11.20;99.90
32322;DHT22;61553;48.994;8.940;2022-09-13T00:36:10;11.20;99.90
32322;DHT22;61553;48.994;8.940;2022-09-13T00:38:40;11.20;99.90
32322;DHT22;61553;48.994;8.940;2022-09-13T00:41:09;11.10;99.90
32322;DHT22;61553;48.994;8.940;2022-09-13T00:43:48;11.10;99.90
32322;DHT22;61553;48.994;8.940;2022-09-13T00:46:36;11.10;99.90
32322;DHT22;61553;48.994;8.940;2022-09-13T00:51:33;11.10;99.90
32322;DHT22;61553;48.994;8.940;2022-09-13T00:53:59;11.10;99.90
32322;DHT22;61553;48.994;8.940;2022-09-13T00:56:34;11.00;99.90
32322;DHT22;61553;48.994;8.940;2022-09-13T00:59:05;11.00;99.90
32322;DHT22;61553;48.994;8.940;2022-09-13T01:01:36;10.90;99.90
32322;DHT22;61553;48.994;8.940;2022-09-13T01:04:07;10.90;99.90
32322;DHT22;61553;48.994;8.940;2022-09-13T01:06:34;10.90;99.90
32322;DHT22;61553;48.994;8.940;2022-09-13T01:09:02;10.80;99.90
32322;DHT22;61553;48.994;8.940;2022-09-13T01:11:43;10.80;99.90
32322;DHT22;61553;48.994;8.940;2022-09-13T01:14:10;10.70;99.90
32322;DHT22;61553;48.994;8.940;2022-09-13T01:16:36;10.60;99.90
32322;DHT22;61553;48.994;8.940;2022-09-13T01:19:02;10.60;99.90
32322;DHT22;61553;48.994;8.940;2022-09-13T01:21:56;10.60;99.90
32322;DHT22;61553;48.994;8.940;2022-09-13T01:30:05;10.40;99.90
32322;DHT22;61553;48.994;8.940;2022-09-13T01:35:19;10.40;99.90
32322;DHT22;61553;48.994;8.940;2022-09-13T01:57:23;10.20;99.90
32322;DHT22;61553;48.994;8.940;2022-09-13T01:59:58;10.10;99.90
32322;DHT22;61553;48.994;8.940;2022-09-13T02:02:45;10.10;99.90
32322;DHT22;61553;48.994;8.940;2022-09-13T02:07:43;10.00;99.90
32322;DHT22;61553;48.994;8.940;2022-09-13T02:10:49;10.00;99.90
32322;DHT22;61553;48.994;8.940;2022-09-13T02:13:21;10.00;99.90
32322;DHT22;61553;48.994;8.940;2022-09-13T02:15:52;10.00;99.90
32322;DHT22;61553;48.994;8.940;2022-09-13T02:18:29;9.90;99.90
32322;DHT22;61553;48.994;8.940;2022-09-13T02:21:01;9.90;99.90
32322;DHT22;61553;48.994;8.940;2022-09-13T02:23:35;9.80;99.90
32322;DHT22;61553;48.994;8.940;2022-09-13T02:26:02;9.80;99.90
32322;DHT22;61553;48.994;8.940;2022-09-13T02:28:35;9.80;99.90
32322;DHT22;61553;48.994;8.940;2022-09-13T02:31:03;9.80;99.90
32322;DHT22;61553;48.994;8.940;2022-09-13T02:33:35;9.80;99.90
32322;DHT22;61553;48.994;8.940;2022-09-13T02:36:06;9.80;99.90
32322;DHT22;61553;48.994;8.940;2022-09-13T02:38:38;9.70;99.90
32322;DHT22;61553;48.994;8.940;2022-09-13T02:41:17;9.70;99.90
32322;DHT22;61553;48.994;8.940;2022-09-13T02:43:55;9.70;99.90
32322;DHT22;61553;48.994;8.940;2022-09-13T02:46:28;9.70;99.90
32322;DHT22;61553;48.994;8.940;2022-09-13T02:52:11;9.60;99.90
32322;DHT22;61553;48.994;8.940;2022-09-13T02:57:41;9.60;99.90
32322;DHT22;61553;48.994;8.940;2022-09-13T03:00:11;9.60;99.90
32322;DHT22;61553;48.994;8.940;2022-09-13T03:02:38;9.60;99.90
32322;DHT22;61553;48.994;8.940;2022-09-13T03:05:05;9.60;99.90
32322;DHT22;61553;48.994;8.940;2022-09-13T03:07:30;9.60;99.90
32322;DHT22;61553;48.994;8.940;2022-09-13T03:10:00;9.60;99.90
32322;DHT22;61553;48.994;8.940;2022-09-13T03:21:04;9.50;99.90
32322;DHT22;61553;48.994;8.940;2022-09-13T03:26:25;9.40;99.90
32322;DHT22;61553;48.994;8.940;2022-09-13T03:29:04;9.40;99.90
32322;DHT22;61553;48.994;8.940;2022-09-13T03:37:26;9.40;99.90
32322;DHT22;61553;48.994;8.940;2022-09-13T03:40:02;9.40;99.90
32322;DHT22;61553;48.994;8.940;2022-09-13T03:42:45;9.30;99.90
32322;DHT22;61553;48.994;8.940;2022-09-13T03:45:13;9.30;99.90
32322;DHT22;61553;48.994;8.940;2022-09-13T03:47:41;9.30;99.90
32322;DHT22;61553;48.994;8.940;2022-09-13T03:50:09;9.30;99.90
32322;DHT22;61553;48.994;8.940;2022-09-13T03:52:35;9.30;99.90
32322;DHT22;61553;48.994;8.940;2022-09-13T03:55:01;9.30;99.90
32322;DHT22;61553;48.994;8.940;2022-09-13T03:57:27;9.30;99.90
32322;DHT22;61553;48.994;8.940;2022-09-13T03:59:55;9.40;99.90
32322;DHT22;61553;48.994;8.940;2022-09-13T04:02:23;9.40;99.90
32322;DHT22;61553;48.994;8.940;2022-09-13T04:04:49;9.40;99.90
32322;DHT22;61553;48.994;8.940;2022-09-13T04:07:20;9.40;99.90
32322;DHT22;61553;48.994;8.940;2022-09-13T04:09:46;9.40;99.90
32322;DHT22;61553;48.994;8.940;2022-09-13T04:12:15;9.40;99.90
32322;DHT22;61553;48.994;8.940;2022-09-13T04:14:42;9.40;99.90
32322;DHT22;61553;48.994;8.940;2022-09-13T04:17:08;9.40;99.90
32322;DHT22;61553;48.994;8.940;2022-09-13T04:19:34;9.40;99.90
32322;DHT22;61553;48.994;8.940;2022-09-13T04:22:00;9.40;99.90
32322;DHT22;61553;48.994;8.940;2022-09-13T04:24:27;9.40;99.90
32322;DHT22;61553;48.994;8.940;2022-09-13T04:26:54;9.40;99.90
32322;DHT22;61553;48.994;8.940;2022-09-13T04:29:21;9.50;99.90
32322;DHT22;61553;48.994;8.940;2022-09-13T04:31:47;9.50;99.90
32322;DHT22;61553;48.994;8.940;2022-09-13T04:34:13;9.50;99.90
32322;DHT22;61553;48.994;8.940;2022-09-13T04:36:39;9.60;99.90
32322;DHT22;61553;48.994;8.940;2022-09-13T04:39:05;9.70;99.90
32322;DHT22;61553;48.994;8.940;2022-09-13T04:41:31;9.80;99.90
32322;DHT22;61553;48.994;8.940;2022-09-13T04:43:59;9.80;99.90
32322;DHT22;61553;48.994;8.940;2022-09-13T04:46:24;9.90;99.90
32322;DHT22;61553;48.994;8.940;2022-09-13T04:48:50;9.90;99.90
32322;DHT22;61553;48.994;8.940;2022-09-13T04:51:17;9.90;99.90
32322;DHT22;61553;48.994;8.940;2022-09-13T04:53:45;10.00;99.90
32322;DHT22;61553;48.994;8.940;2022-09-13T04:56:11;10.00;99.90
32322;DHT22;61553;48.994;8.940;2022-09-13T04:58:39;10.00;99.90
32322;DHT22;61553;48.994;8.940;2022-09-13T05:01:07;10.10;99.90
32322;DHT22;61553;48.994;8.940;2022-09-13T05:03:34;10.10;99.90
32322;DHT22;61553;48.994;8.940;2022-09-13T05:06:08;10.10;99.90
32322;DHT22;61553;48.994;8.940;2022-09-13T05:08:35;10.10;99.90
32322;DHT22;61553;48.994;8.940;2022-09-13T05:11:01;10.20;99.90
32322;DHT22;61553;48.994;8.940;2022-09-13T05:13:28;10.20;99.90
32322;DHT22;61553;48.994;8.940;2022-09-13T05:15:59;10.20;99.90
32322;DHT22;61553;48.994;8.940;2022-09-13T05:18:26;10.10;99.90
32322;DHT22;61553;48.994;8.940;2022-09-13T05:20:56;10.20;99.90
32322;DHT22;61553;48.994;8.940;2022-09-13T05:23:23;10.30;99.90
32322;DHT22;61553;48.994;8.940;2022-09-13T05:25:58;10.30;99.90
32322;DHT22;61553;48.994;8.940;2022-09-13T05:28:26;10.40;99.90
32322;DHT22;61553;48.994;8.940;2022-09-13T05:31:05;10.50;99.90
32322;DHT22;61553;48.994;8.940;2022-09-13T05:33:33;10.60;99.90
32322;DHT22;61553;48.994;8.940;2022-09-13T05:35:59;10.60;99.90
32322;DHT22;61553;48.994;8.940;2022-09-13T05:38:25;10.70;99.90
32322;DHT22;61553;48.994;8.940;2022-09-13T05:40:55;10.70;99.90
32322;DHT22;61553;48.994;8.940;2022-09-13T05:43:22;10.80;99.90
32322;DHT22;61553;48.994;8.940;2022-09-13T05:45:48;10.90;99.90
32322;DHT22;61553;48.994;8.940;2022-09-13T05:48:13;11.10;99.90
32322;DHT22;61553;48.994;8.940;2022-09-13T05:50:39;11.20;99.90
32322;DHT22;61553;48.994;8.940;2022-09-13T05:53:04;11.50;99.90
32322;DHT22;61553;48.994;8.940;2022-09-13T05:55:31;11.70;99.90
32322;DHT22;61553;48.994;8.940;2022-09-13T05:57:57;11.90;99.90
32322;DHT22;61553;48.994;8.940;2022-09-13T06:00:23;12.00;99.90
32322;DHT22;61553;48.994;8.940;2022-09-13T06:02:48;12.00;99.90
32322;DHT22;61553;48.994;8.940;2022-09-13T06:05:14;12.10;99.90
32322;DHT22;61553;48.994;8.940;2022-09-13T06:07:41;12.30;99.90
32322;DHT22;61553;48.994;8.940;2022-09-13T06:10:08;12.40;99.90
32322;DHT22;61553;48.994;8.940;2022-09-13T06:12:34;12.50;99.90
32322;DHT22;61553;48.994;8.940;2022-09-13T06:14:59;12.60;99.90
32322;DHT22;61553;48.994;8.940;2022-09-13T06:17:25;12.70;99.90
32322;DHT22;61553;48.994;8.940;2022-09-13T06:19:51;12.90;99.90
32322;DHT22;61553;48.994;8.940;2022-09-13T06:22:16;13.00;99.90
32322;DHT22;61553;48.994;8.940;2022-09-13T06:24:42;13.20;99.90
32322;DHT22;61553;48.994;8.940;2022-09-13T06:27:08;13.40;99.90
32322;DHT22;61553;48.994;8.940;2022-09-13T06:29:35;13.60;99.90
32322;DHT22;61553;48.994;8.940;2022-09-13T06:32:04;13.90;99.90
32322;DHT22;61553;48.994;8.940;2022-09-13T06:34:29;14.10;99.90
32322;DHT22;61553;48.994;8.940;2022-09-13T06:36:55;14.30;99.90
32322;DHT22;61553;48.994;8.940;2022-09-13T06:39:21;14.40;99.90
32322;DHT22;61553;48.994;8.940;2022-09-13T06:41:47;14.70;99.90
32322;DHT22;61553;48.994;8.940;2022-09-13T06:44:12;15.00;99.90
32322;DHT22;61553;48.994;8.940;2022-09-13T06:46:38;15.30;99.90
32322;DHT22;61553;48.994;8.940;2022-09-13T06:49:05;15.70;99.90
32322;DHT22;61553;48.994;8.940;2022-09-13T06:51:33;16.00;99.90
32322;DHT22;61553;48.994;8.940;2022-09-13T06:53:59;16.30;99.90
32322;DHT22;61553;48.994;8.940;2022-09-13T06:58:54;16.50;99.90
32322;DHT22;61553;48.994;8.940;2022-09-13T07:01:26;16.70;99.90
32322;DHT22;61553;48.994;8.940;2022-09-13T07:04:05;18.20;99.90
32322;DHT22;61553;48.994;8.940;2022-09-13T07:06:33;20.40;99.90
32322;DHT22;61553;48.994;8.940;2022-09-13T07:09:00;22.50;99.90
32322;DHT22;61553;48.994;8.940;2022-09-13T07:11:31;24.20;93.90
32322;DHT22;61553;48.994;8.940;2022-09-13T07:13:58;24.40;91.90
32322;DHT22;61553;48.994;8.940;2022-09-13T07:16:26;25.70;86.50
32322;DHT22;61553;48.994;8.940;2022-09-13T07:18:56;25.70;81.50
32322;DHT22;61553;48.994;8.940;2022-09-13T07:21:22;25.80;81.20
32322;DHT22;61553;48.994;8.940;2022-09-13T07:23:49;25.80;79.00
32322;DHT22;61553;48.994;8.940;2022-09-13T07:26:15;25.90;78.10
32322;DHT22;61553;48.994;8.940;2022-09-13T07:28:43;25.50;80.20
32322;DHT22;61553;48.994;8.940;2022-09-13T07:31:12;25.70;77.30
32322;DHT22;61553;48.994;8.940;2022-09-13T07:33:39;25.60;76.00
32322;DHT22;61553;48.994;8.940;2022-09-13T07:36:06;25.00;77.50
32322;DHT22;61553;48.994;8.940;2022-09-13T07:38:36;24.30;79.20
32322;DHT22;61553;48.994;8.940;2022-09-13T07:41:03;23.50;82.90
32322;DHT22;61553;48.994;8.940;2022-09-13T07:43:32;22.60;85.80
32322;DHT22;61553;48.994;8.940;2022-09-13T07:46:07;22.30;88.40
32322;DHT22;61553;48.994;8.940;2022-09-13T07:48:35;21.80;90.10
32322;DHT22;61553;48.994;8.940;2022-09-13T07:51:03;21.70;90.80
32322;DHT22;61553;48.994;8.940;2022-09-13T07:53:30;21.30;91.90
32322;DHT22;61553;48.994;8.940;2022-09-13T07:56:08;21.00;93.20
32322;DHT22;61553;48.994;8.940;2022-09-13T07:58:35;20.90;93.60
32322;DHT22;61553;48.994;8.940;2022-09-13T08:03:32;20.90;94.90
32322;DHT22;61553;48.994;8.940;2022-09-13T08:05:58;20.70;95.70
32322;DHT22;61553;48.994;8.940;2022-09-13T08:08:24;20.80;96.10
32322;DHT22;61553;48.994;8.940;2022-09-13T08:10:50;20.90;96.50
32322;DHT22;61553;48.994;8.940;2022-09-13T08:13:16;21.00;96.80
32322;DHT22;61553;48.994;8.940;2022-09-13T08:15:42;21.10;97.00
32322;DHT22;61553;48.994;8.940;2022-09-13T08:18:08;21.30;96.50
32322;DHT22;61553;48.994;8.940;2022-09-13T08:20:37;21.40;96.50
32322;DHT22;61553;48.994;8.940;2022-09-13T08:23:05;21.30;96.50
32322;DHT22;61553;48.994;8.940;2022-09-13T08:25:32;21.30;96.40
32322;DHT22;61553;48.994;8.940;2022-09-13T08:28:00;21.30;96.50
32322;DHT22;61553;48.994;8.940;2022-09-13T08:30:26;21.40;96.10
32322;DHT22;61553;48.994;8.940;2022-09-13T08:32:58;21.60;96.10
32322;DHT22;61553;48.994;8.940;2022-09-13T08:35:24;22.00;95.50
32322;DHT22;61553;48.994;8.940;2022-09-13T08:37:50;22.30;94.70
32322;DHT22;61553;48.994;8.940;2022-09-13T08:40:15;23.00;94.10
32322;DHT22;61553;48.994;8.940;2022-09-13T08:43:05;23.80;92.40
32322;DHT22;61553;48.994;8.940;2022-09-13T08:45:34;24.20;91.60
32322;DHT22;61553;48.994;8.940;2022-09-13T08:48:08;24.70;90.40
32322;DHT22;61553;48.994;8.940;2022-09-13T08:50:37;24.80;88.70
32322;DHT22;61553;48.994;8.940;2022-09-13T08:53:25;25.00;87.40
32322;DHT22;61553;48.994;8.940;2022-09-13T08:56:05;25.30;85.90
32322;DHT22;61553;48.994;8.940;2022-09-13T09:01:19;25.50;83.50
32322;DHT22;61553;48.994;8.940;2022-09-13T09:06:22;25.90;80.30
32322;DHT22;61553;48.994;8.940;2022-09-13T09:08:57;26.90;78.70
32322;DHT22;61553;48.994;8.940;2022-09-13T09:11:41;27.40;75.10
32322;DHT22;61553;48.994;8.940;2022-09-13T09:14:29;27.50;73.60
32322;DHT22;61553;48.994;8.940;2022-09-13T09:17:12;27.70;71.00
32322;DHT22;61553;48.994;8.940;2022-09-13T09:19:42;27.50;70.90
32322;DHT22;61553;48.994;8.940;2022-09-13T09:22:15;27.40;71.90
32322;DHT22;61553;48.994;8.940;2022-09-13T09:24:45;27.80;70.60
32322;DHT22;61553;48.994;8.940;2022-09-13T09:27:17;28.00;69.80
32322;DHT22;61553;48.994;8.940;2022-09-13T09:29:48;28.20;68.60
32322;DHT22;61553;48.994;8.940;2022-09-13T09:33:02;28.40;68.30
32322;DHT22;61553;48.994;8.940;2022-09-13T09:36:00;29.10;64.20
32322;DHT22;61553;48.994;8.940;2022-09-13T09:38:40;31.50;59.80
32322;DHT22;61553;48.994;8.940;2022-09-13T09:41:29;33.80;53.40
32322;DHT22;61553;48.994;8.940;2022-09-13T09:46:49;36.00;47.30
32322;DHT22;61553;48.994;8.940;2022-09-13T09:49:31;37.20;45.00
32322;DHT22;61553;48.994;8.940;2022-09-13T09:58:04;35.30;45.00
32322;DHT22;61553;48.994;8.940;2022-09-13T10:00:35;34.90;45.40
32322;DHT22;61553;48.994;8.940;2022-09-13T10:03:05;34.30;46.20
32322;DHT22;61553;48.994;8.940;2022-09-13T10:05:33;33.70;46.50
32322;DHT22;61553;48.994;8.940;2022-09-13T10:08:01;33.60;46.30
32322;DHT22;61553;48.994;8.940;2022-09-13T10:10:41;33.80;46.80
32322;DHT22;61553;48.994;8.940;2022-09-13T10:13:14;34.80;45.30
32322;DHT22;61553;48.994;8.940;2022-09-13T10:15:58;35.50;44.80
32322;DHT22;61553;48.994;8.940;2022-09-13T10:18:32;36.30;43.70
32322;DHT22;61553;48.994;8.940;2022-09-13T10:23:28;36.80;43.00
32322;DHT22;61553;48.994;8.940;2022-09-13T10:28:25;36.50;43.10
32322;DHT22;61553;48.994;8.940;2022-09-13T10:30:56;37.80;41.70
32322;DHT22;61553;48.994;8.940;2022-09-13T10:33:35;38.90;40.80
32322;DHT22;61553;48.994;8.940;2022-09-13T10:36:11;38.30;40.90
32322;DHT22;61553;48.994;8.940;2022-09-13T10:38:40;37.20;41.50
32322;DHT22;61553;48.994;8.940;2022-09-13T10:41:08;36.10;42.70
32322;DHT22;61553;48.994;8.940;2022-09-13T10:43:35;34.60;43.70
32322;DHT22;61553;48.994;8.940;2022-09-13T10:46:04;33.20;45.40
32322;DHT22;61553;48.994;8.940;2022-09-13T10:48:44;32.90;46.70
32322;DHT22;61553;48.994;8.940;2022-09-13T10:54:22;33.00;46.30
32322;DHT22;61553;48.994;8.940;2022-09-13T10:56:49;33.20;45.40
32322;DHT22;61553;48.994;8.940;2022-09-13T10:59:26;33.30;45.40
32322;DHT22;61553;48.994;8.940;2022-09-13T11:12:44;33.20;45.20
32322;DHT22;61553;48.994;8.940;2022-09-13T11:31:20;31.90;45.40
32322;DHT22;61553;48.994;8.940;2022-09-13T11:36:42;32.10;44.20
32322;DHT22;61553;48.994;8.940;2022-09-13T11:39:48;32.10;43.50
32322;DHT22;61553;48.994;8.940;2022-09-13T11:42:44;32.00;42.70
32322;DHT22;61553;48.994;8.940;2022-09-13T11:45:17;31.70;41.90
32322;DHT22;61553;48.994;8.940;2022-09-13T11:48:45;31.60;42.30
32322;DHT22;61553;48.994;8.940;2022-09-13T11:51:00;31.50;43.60
32322;DHT22;61553;48.994;8.940;2022-09-13T11:56:41;31.60;43.30
32322;DHT22;61553;48.994;8.940;2022-09-13T12:01:58;31.80;42.90
32322;DHT22;61553;48.994;8.940;2022-09-13T12:04:36;31.50;43.10
32322;DHT22;61553;48.994;8.940;2022-09-13T12:07:13;31.40;43.60
32322;DHT22;61553;48.994;8.940;2022-09-13T12:09:52;31.50;44.70
32322;DHT22;61553;48.994;8.940;2022-09-13T12:12:22;31.60;43.50
32322;DHT22;61553;48.994;8.940;2022-09-13T12:15:13;31.50;44.30
32322;DHT22;61553;48.994;8.940;2022-09-13T12:17:51;31.60;43.00
32322;DHT22;61553;48.994;8.940;2022-09-13T12:22:52;31.60;42.30
32322;DHT22;61553;48.994;8.940;2022-09-13T12:25:24;31.60;42.80
32322;DHT22;61553;48.994;8.940;2022-09-13T12:27:58;31.60;42.30
32322;DHT22;61553;48.994;8.940;2022-09-13T12:33:44;31.90;41.10
32322;DHT22;61553;48.994;8.940;2022-09-13T12:44:24;31.50;41.60
32322;DHT22;61553;48.994;8.940;2022-09-13T12:47:03;31.30;42.20
32322;DHT22;61553;48.994;8.940;2022-09-13T12:50:02;31.00;42.60
32322;DHT22;61553;48.994;8.940;2022-09-13T12:55:45;30.30;43.80
32322;DHT22;61553;48.994;8.940;2022-09-13T12:58:37;30.30;44.50
32322;DHT22;61553;48.994;8.940;2022-09-13T13:01:20;30.30;44.30
32322;DHT22;61553;48.994;8.940;2022-09-13T13:06:26;30.30;44.40
32322;DHT22;61553;48.994;8.940;2022-09-13T13:08:56;30.40;44.40
32322;DHT22;61553;48.994;8.940;2022-09-13T13:11:27;30.20;45.10
32322;DHT22;61553;48.994;8.940;2022-09-13T13:14:01;30.20;44.80
32322;DHT22;61553;48.994;8.940;2022-09-13T13:16:38;30.30;44.80
32322;DHT22;61553;48.994;8.940;2022-09-13T13:19:30;30.60;44.30
32322;DHT22;61553;48.994;8.940;2022-09-13T13:27:54;31.20;43.50
32322;DHT22;61553;48.994;8.940;2022-09-13T13:30:39;31.40;43.90
32322;DHT22;61553;48.994;8.940;2022-09-13T13:33:17;31.50;43.20
32322;DHT22;61553;48.994;8.940;2022-09-13T13:35:44;31.80;43.40
32322;DHT22;61553;48.994;8.940;2022-09-13T13:38:30;31.80;43.40
32322;DHT22;61553;48.994;8.940;2022-09-13T13:41:06;31.60;43.60
32322;DHT22;61553;48.994;8.940;2022-09-13T13:43:34;31.20;44.20
32322;DHT22;61553;48.994;8.940;2022-09-13T13:48:39;30.30;45.70
32322;DHT22;61553;48.994;8.940;2022-09-13T13:51:12;30.00;45.80
32322;DHT22;61553;48.994;8.940;2022-09-13T13:53:46;29.80;45.80
32322;DHT22;61553;48.994;8.940;2022-09-13T14:01:45;30.10;45.20
32322;DHT22;61553;48.994;8.940;2022-09-13T14:09:39;30.70;44.50
32322;DHT22;61553;48.994;8.940;2022-09-13T14:18:11;30.70;44.50
32322;DHT22;61553;48.994;8.940;2022-09-13T14:20:34;30.50;45.40
32322;DHT22;61553;48.994;8.940;2022-09-13T14:23:18;30.40;45.80
32322;DHT22;61553;48.994;8.940;2022-09-13T14:25:45;30.30;45.60
32322;DHT22;61553;48.994;8.940;2022-09-13T14:28:18;30.30;47.20
32322;DHT22;61553;48.994;8.940;2022-09-13T14:30:45;30.10;46.60
32322;DHT22;61553;48.994;8.940;2022-09-13T14:33:27;30.10;45.50
32322;DHT22;61553;48.994;8.940;2022-09-13T14:36:02;30.10;45.10
32322;DHT22;61553;48.994;8.940;2022-09-13T14:38:30;30.10;45.50
32322;DHT22;61553;48.994;8.940;2022-09-13T14:43:28;30.00;46.40
32322;DHT22;61553;48.994;8.940;2022-09-13T14:45:59;30.00;46.10
32322;DHT22;61553;48.994;8.940;2022-09-13T14:48:37;30.10;45.50
32322;DHT22;61553;48.994;8.940;2022-09-13T14:51:19;30.20;46.00
32322;DHT22;61553;48.994;8.940;2022-09-13T14:53:49;30.20;45.80
32322;DHT22;61553;48.994;8.940;2022-09-13T14:58:53;30.30;45.60
32322;DHT22;61553;48.994;8.940;2022-09-13T15:01:26;30.40;45.30
32322;DHT22;61553;48.994;8.940;2022-09-13T15:03:55;30.40;45.60
32322;DHT22;61553;48.994;8.940;2022-09-13T15:06:24;30.40;45.10
32322;DHT22;61553;48.994;8.940;2022-09-13T15:08:51;30.30;44.70
32322;DHT22;61553;48.994;8.940;2022-09-13T15:11:32;30.20;44.90
32322;DHT22;61553;48.994;8.940;2022-09-13T15:17:11;29.80;44.40
32322;DHT22;61553;48.994;8.940;2022-09-13T15:19:43;29.50;45.00
32322;DHT22;61553;48.994;8.940;2022-09-13T15:22:23;29.30;45.20
32322;DHT22;61553;48.994;8.940;2022-09-13T15:24:56;29.00;45.90
32322;DHT22;61553;48.994;8.940;2022-09-13T15:27:28;28.80;46.40
32322;DHT22;61553;48.994;8.940;2022-09-13T15:29:57;28.70;46.30
32322;DHT22;61553;48.994;8.940;2022-09-13T15:35:22;28.50;47.00
32322;DHT22;61553;48.994;8.940;2022-09-13T15:40:44;28.30;48.90
32322;DHT22;61553;48.994;8.940;2022-09-13T15:43:11;28.20;49.50
32322;DHT22;61553;48.994;8.940;2022-09-13T15:45:36;28.10;50.00
32322;DHT22;61553;48.994;8.940;2022-09-13T15:48:02;28.00;50.50
32322;DHT22;61553;48.994;8.940;2022-09-13T15:50:29;28.00;51.10
32322;DHT22;61553;48.994;8.940;2022-09-13T15:53:00;27.90;51.00
32322;DHT22;61553;48.994;8.940;2022-09-13T15:55:27;27.80;50.90
32322;DHT22;61553;48.994;8.940;2022-09-13T15:57:53;27.70;50.80
32322;DHT22;61553;48.994;8.940;2022-09-13T16:00:23;27.70;51.10
32322;DHT22;61553;48.994;8.940;2022-09-13T16:02:49;27.60;51.70
32322;DHT22;61553;48.994;8.940;2022-09-13T16:05:15;27.40;51.40
32322;DHT22;61553;48.994;8.940;2022-09-13T16:07:42;27.40;51.60
32322;DHT22;61553;48.994;8.940;2022-09-13T16:10:27;27.30;51.80
32322;DHT22;61553;48.994;8.940;2022-09-13T16:12:52;27.20;52.80
32322;DHT22;61553;48.994;8.940;2022-09-13T16:15:19;27.00;53.30
32322;DHT22;61553;48.994;8.940;2022-09-13T16:17:45;27.00;53.30
32322;DHT22;61553;48.994;8.940;2022-09-13T16:20:14;26.90;53.40
32322;DHT22;61553;48.994;8.940;2022-09-13T16:22:40;26.80;54.50
32322;DHT22;61553;48.994;8.940;2022-09-13T16:25:08;26.70;54.00
32322;DHT22;61553;48.994;8.940;2022-09-13T16:27:33;26.60;56.00
32322;DHT22;61553;48.994;8.940;2022-09-13T16:30:00;26.50;56.10
32322;DHT22;61553;48.994;8.940;2022-09-13T16:32:25;26.50;55.70
32322;DHT22;61553;48.994;8.940;2022-09-13T16:34:51;26.40;56.80
32322;DHT22;61553;48.994;8.940;2022-09-13T16:37:17;26.30;56.30
32322;DHT22;61553;48.994;8.940;2022-09-13T16:39:44;26.30;57.70
32322;DHT22;61553;48.994;8.940;2022-09-13T16:42:11;26.20;57.60
32322;DHT22;61553;48.994;8.940;2022-09-13T16:44:37;26.10;58.20
32322;DHT22;61553;48.994;8.940;2022-09-13T16:47:02;26.00;58.80
32322;DHT22;61553;48.994;8.940;2022-09-13T16:49:28;25.90;59.20
32322;DHT22;61553;48.994;8.940;2022-09-13T16:51:54;25.80;60.40
32322;DHT22;61553;48.994;8.940;2022-09-13T16:54:24;25.60;61.80
32322;DHT22;61553;48.994;8.940;2022-09-13T16:56:51;25.40;63.20
32322;DHT22;61553;48.994;8.940;2022-09-13T16:59:16;25.20;65.80
32322;DHT22;61553;48.994;8.940;2022-09-13T17:01:42;25.00;65.70
32322;DHT22;61553;48.994;8.940;2022-09-13T17:04:07;24.90;65.10
32322;DHT22;61553;48.994;8.940;2022-09-13T17:06:35;24.80;59.20
32322;DHT22;61553;48.994;8.940;2022-09-13T17:09:03;24.80;59.10
32322;DHT22;61553;48.994;8.940;2022-09-13T17:11:32;24.70;60.40
32322;DHT22;61553;48.994;8.940;2022-09-13T17:13:59;24.70;60.10
32322;DHT22;61553;48.994;8.940;2022-09-13T17:16:34;24.60;62.30
32322;DHT22;61553;48.994;8.940;2022-09-13T17:19:03;24.60;63.40
32322;DHT22;61553;48.994;8.940;2022-09-13T17:21:29;24.50;63.40
32322;DHT22;61553;48.994;8.940;2022-09-13T17:23:55;24.40;64.40
32322;DHT22;61553;48.994;8.940;2022-09-13T17:26:21;24.20;66.90
32322;DHT22;61553;48.994;8.940;2022-09-13T17:28:47;24.00;67.50
32322;DHT22;61553;48.994;8.940;2022-09-13T17:31:13;23.80;67.70
32322;DHT22;61553;48.994;8.940;2022-09-13T17:33:39;23.70;68.80
32322;DHT22;61553;48.994;8.940;2022-09-13T17:36:08;23.50;69.90
32322;DHT22;61553;48.994;8.940;2022-09-13T17:38:35;23.30;70.60
32322;DHT22;61553;48.994;8.940;2022-09-13T17:41:06;23.20;71.70
32322;DHT22;61553;48.994;8.940;2022-09-13T17:43:34;23.00;72.70
32322;DHT22;61553;48.994;8.940;2022-09-13T17:46:09;22.90;73.00
32322;DHT22;61553;48.994;8.940;2022-09-13T17:48:34;22.80;73.10
32322;DHT22;61553;48.994;8.940;2022-09-13T17:51:05;22.70;72.90
32322;DHT22;61553;48.994;8.940;2022-09-13T17:53:36;22.60;73.40
32322;DHT22;61553;48.994;8.940;2022-09-13T17:56:03;22.50;73.50
32322;DHT22;61553;48.994;8.940;2022-09-13T17:58:28;22.40;73.90
32322;DHT22;61553;48.994;8.940;2022-09-13T18:01:07;22.30;74.50
32322;DHT22;61553;48.994;8.940;2022-09-13T18:03:33;22.30;75.40
32322;DHT22;61553;48.994;8.940;2022-09-13T18:06:01;22.20;75.20
32322;DHT22;61553;48.994;8.940;2022-09-13T18:08:29;22.10;75.90
32322;DHT22;61553;48.994;8.940;2022-09-13T18:11:01;22.00;76.80
32322;DHT22;61553;48.994;8.940;2022-09-13T18:13:27;21.90;78.00
32322;DHT22;61553;48.994;8.940;2022-09-13T18:16:07;21.80;78.20
32322;DHT22;61553;48.994;8.940;2022-09-13T18:18:34;21.70;78.70
32322;DHT22;61553;48.994;8.940;2022-09-13T18:21:01;21.60;80.10
32322;DHT22;61553;48.994;8.940;2022-09-13T18:23:27;21.50;82.10
32322;DHT22;61553;48.994;8.940;2022-09-13T18:26:04;21.40;84.00
32322;DHT22;61553;48.994;8.940;2022-09-13T18:28:31;21.20;85.80
32322;DHT22;61553;48.994;8.940;2022-09-13T18:30:59;21.10;87.60
32322;DHT22;61553;48.994;8.940;2022-09-13T18:33:26;21.00;89.10
32322;DHT22;61553;48.994;8.940;2022-09-13T18:36:14;20.90;90.30
32322;DHT22;61553;48.994;8.940;2022-09-13T18:38:44;20.80;91.20
32322;DHT22;61553;48.994;8.940;2022-09-13T18:41:14;20.70;93.00
32322;DHT22;61553;48.994;8.940;2022-09-13T18:43:41;20.60;93.80
32322;DHT22;61553;48.994;8.940;2022-09-13T18:46:10;20.50;94.70
32322;DHT22;61553;48.994;8.940;2022-09-13T18:48:44;20.40;96.50
32322;DHT22;61553;48.994;8.940;2022-09-13T18:51:15;20.30;98.00
32322;DHT22;61553;48.994;8.940;2022-09-13T18:53:41;20.20;99.00